Time;durP1;ratioP1;P1;durP2;ratioP2;P2;SDS_P1;SDS_P2;PMS_P1;PMS_P2;Temp;Humidity;BMP_temperature;BMP_pressure;BME280_temperature;BME280_humidity;BME280_pressure;Samples;Min_cycle;Max_cycle;Signal;HPM_P1;HPM_P2
2021/05/10 00:01:06;;;;;;;8.13;3.52;;;;;;;13.10;52.82;100400.65;1663372;85;25838;-74
2021/05/10 00:03:32;;;;;;;5.87;3.27;;;;;;;13.06;52.89;100392.80;1662949;85;25845;-74
2021/05/10 00:05:58;;;;;;;7.40;3.98;;;;;;;13.01;53.03;100392.05;1659905;85;33912;-74
2021/05/10 00:08:25;;;;;;;5.97;3.03;;;;;;;12.91;53.14;100384.94;1659732;85;30490;-73
2021/05/10 00:10:52;;;;;;;7.85;3.40;;;;;;;12.89;53.25;100398.72;1658143;85;25359;-74
2021/05/10 00:13:18;;;;;;;5.58;3.02;;;;;;;12.84;53.38;100398.44;1664033;85;25839;-74
2021/05/10 00:15:48;;;;;;;6.25;3.67;;;;;;;12.80;53.54;100402.43;1664244;85;25634;-73
2021/05/10 00:18:15;;;;;;;5.60;3.12;;;;;;;12.77;53.64;100393.10;1632796;86;25781;-74
2021/05/10 00:20:43;;;;;;;5.22;3.35;;;;;;;12.75;53.73;100399.52;1662820;85;25728;-74
2021/05/10 00:23:11;;;;;;;5.97;3.62;;;;;;;12.70;53.85;100400.55;1660232;85;25957;-74
2021/05/10 00:25:38;;;;;;;8.53;3.55;;;;;;;12.66;53.97;100407.97;1664765;85;25721;-73
2021/05/10 00:28:06;;;;;;;4.80;3.00;;;;;;;12.63;54.06;100405.20;1661940;84;25692;-74
2021/05/10 00:30:32;;;;;;;4.20;3.27;;;;;;;12.60;54.17;100399.00;1660703;84;25395;-73
2021/05/10 00:32:59;;;;;;;5.55;3.37;;;;;;;12.56;54.23;100402.14;1661284;84;26438;-74
2021/05/10 00:35:25;;;;;;;6.37;2.83;;;;;;;12.52;54.33;100403.47;1663605;85;26234;-74
2021/05/10 00:37:52;;;;;;;7.10;3.77;;;;;;;12.49;54.38;100398.59;1661322;85;25739;-74
2021/05/10 00:40:23;;;;;;;5.20;3.15;;;;;;;12.48;54.52;100400.90;1664240;85;25866;-73
2021/05/10 00:42:48;;;;;;;;;;;;;;;12.42;54.63;100402.42;1661948;85;26353;-75
2021/05/10 00:45:15;;;;;;;5.43;3.07;;;;;;;12.36;54.80;100403.94;1663998;85;31454;-74
2021/05/10 00:47:41;;;;;;;4.80;3.15;;;;;;;12.34;54.96;100407.72;1662168;84;25878;-74
2021/05/10 00:50:09;;;;;;;6.72;3.08;;;;;;;12.30;55.05;100405.92;1662612;85;25800;-75
2021/05/10 00:52:36;;;;;;;6.22;3.62;;;;;;;12.29;55.12;100403.50;1661501;85;25887;-75
2021/05/10 00:55:05;;;;;;;5.42;3.05;;;;;;;12.24;55.23;100400.58;1660833;84;26137;-74
2021/05/10 00:57:48;;;;;;;6.80;3.77;;;;;;;12.19;55.29;100395.86;1653130;85;25382;-74
2021/05/10 01:00:16;;;;;;;5.95;3.42;;;;;;;12.14;55.29;100392.94;1663117;84;25814;-73
2021/05/10 01:02:43;;;;;;;5.47;3.40;;;;;;;12.09;55.46;100389.55;1663823;85;25886;-73
2021/05/10 01:05:11;;;;;;;8.55;4.22;;;;;;;12.04;55.55;100391.88;1663819;85;25650;-72
2021/05/10 01:07:38;;;;;;;6.55;3.55;;;;;;;12.01;55.66;100397.97;1663631;85;25848;-73
2021/05/10 01:10:12;;;;;;;5.55;3.27;;;;;;;11.98;55.71;100396.50;1664508;85;26090;-73
2021/05/10 01:12:39;;;;;;;5.72;3.42;;;;;;;11.95;55.74;100404.21;1651452;85;26546;-73
2021/05/10 01:15:10;;;;;;;7.75;3.85;;;;;;;11.93;55.91;100401.44;1664926;85;25713;-73
2021/05/10 01:17:37;;;;;;;6.12;3.87;;;;;;;11.93;55.95;100392.27;1632940;86;25679;-73
2021/05/10 01:20:07;;;;;;;6.25;3.40;;;;;;;11.92;56.01;100390.16;1660934;85;25954;-72
2021/05/10 01:22:44;;;;;;;9.28;3.95;;;;;;;11.90;56.12;100392.13;1652306;85;33544;-73
2021/05/10 01:25:14;;;;;;;7.53;4.03;;;;;;;11.89;56.21;100383.12;1651508;85;25849;-74
2021/05/10 01:27:42;;;;;;;5.78;3.47;;;;;;;11.89;56.30;100382.62;1662182;85;25820;-73
2021/05/10 01:30:14;;;;;;;5.00;3.40;;;;;;;11.89;56.31;100386.55;1661678;85;25905;-73
2021/05/10 01:32:39;;;;;;;8.25;3.98;;;;;;;11.85;56.33;100389.17;1657978;85;26794;-74
2021/05/10 01:35:08;;;;;;;9.87;3.60;;;;;;;11.80;56.45;100391.98;1662129;85;28995;-74
2021/05/10 01:37:34;;;;;;;8.80;3.52;;;;;;;11.78;56.55;100389.06;1660926;85;25896;-74
2021/05/10 01:40:00;;;;;;;7.10;3.65;;;;;;;11.72;56.59;100388.41;1663484;85;25695;-73
2021/05/10 01:42:26;;;;;;;4.70;3.00;;;;;;;11.70;56.71;100383.86;1663981;85;25475;-73
2021/05/10 01:44:52;;;;;;;8.10;3.80;;;;;;;11.65;56.83;100391.41;1662865;85;31898;-73
2021/05/10 01:47:18;;;;;;;6.62;3.60;;;;;;;11.61;56.93;100390.11;1661061;85;25763;-73
2021/05/10 01:49:48;;;;;;;9.25;3.67;;;;;;;11.59;57.03;100398.62;1662125;85;34856;-74
2021/05/10 01:52:15;;;;;;;7.03;3.93;;;;;;;11.57;57.03;100401.92;1661726;85;25852;-74
2021/05/10 01:54:50;;;;;;;7.62;3.70;;;;;;;11.52;57.17;100408.97;1659283;85;25859;-74
2021/05/10 01:57:19;;;;;;;8.28;3.75;;;;;;;11.49;57.26;100408.50;1662964;85;25854;-74
2021/05/10 01:59:45;;;;;;;8.33;3.80;;;;;;;11.47;57.40;100409.97;1651557;85;25809;-74
2021/05/10 02:02:11;;;;;;;7.17;3.67;;;;;;;11.47;57.49;100414.39;1661576;85;25792;-74
2021/05/10 02:05:17;;;;;;;8.20;3.58;;;;;;;11.45;57.51;100411.12;1663438;85;33296;-73
2021/05/10 02:07:47;;;;;;;7.62;4.20;;;;;;;11.43;57.55;100413.92;1663210;84;26427;-75
2021/05/10 02:10:33;;;;;;;6.85;3.62;;;;;;;11.42;57.62;100418.00;1661979;85;25730;-75
2021/05/10 02:13:07;;;;;;;7.72;3.35;;;;;;;11.40;57.66;100423.39;1663794;85;25798;-72
2021/05/10 02:15:50;;;;;;;7.92;3.77;;;;;;;11.39;57.74;100418.34;1634601;86;25817;-75
2021/05/10 02:18:21;;;;;;;7.25;4.00;;;;;;;11.38;57.77;100424.08;1659361;85;25744;-73
2021/05/10 02:20:47;;;;;;;6.22;3.62;;;;;;;11.37;57.89;100425.54;1651915;85;26452;-73
2021/05/10 02:23:21;;;;;;;6.25;3.58;;;;;;;11.36;57.95;100419.99;1657082;85;25904;-73
2021/05/10 02:25:52;;;;;;;10.85;3.75;;;;;;;11.34;58.07;100416.22;1664714;85;25343;-73
2021/05/10 02:28:23;;;;;;;7.40;3.90;;;;;;;11.33;58.10;100429.00;1663374;85;25856;-73
2021/05/10 02:30:48;;;;;;;8.25;4.10;;;;;;;11.28;58.12;100429.98;1633961;86;25873;-74
2021/05/10 02:33:17;;;;;;;8.43;4.27;;;;;;;11.20;58.67;100428.70;1663939;85;26495;-74
2021/05/10 02:35:46;;;;;;;6.97;3.75;;;;;;;11.20;58.67;100428.70;1662866;85;25956;-74
2021/05/10 02:38:13;;;;;;;11.33;4.40;;;;;;;11.19;58.47;100433.13;1658134;85;25816;-74
2021/05/10 02:40:39;;;;;;;9.30;4.53;;;;;;;11.15;58.56;100429.19;1659336;85;25791;-75
2021/05/10 02:43:06;;;;;;;7.70;3.85;;;;;;;11.13;58.68;100432.95;1660164;85;26216;-74
2021/05/10 02:45:32;;;;;;;13.40;4.45;;;;;;;11.10;58.77;100432.80;1659738;85;25691;-75
2021/05/10 02:47:59;;;;;;;8.88;4.10;;;;;;;11.07;58.80;100435.25;1660515;85;25722;-74
2021/05/10 02:50:27;;;;;;;7.00;3.98;;;;;;;11.03;58.91;100437.89;1661921;85;25943;-74
2021/05/10 02:52:53;;;;;;;11.53;4.17;;;;;;;10.98;58.99;100435.45;1662433;85;25406;-74
2021/05/10 02:55:20;;;;;;;7.50;4.10;;;;;;;10.98;59.10;100435.45;1663225;85;25758;-74
2021/05/10 02:57:48;;;;;;;7.80;4.12;;;;;;;10.95;59.12;100435.28;1663997;85;25843;-73
2021/05/10 03:00:21;;;;;;;6.65;3.90;;;;;;;10.95;59.25;100435.28;1662482;85;25789;-73
2021/05/10 03:02:46;;;;;;;7.67;4.05;;;;;;;10.94;59.32;100437.58;1663242;85;25334;-74
2021/05/10 03:05:14;;;;;;;8.35;4.53;;;;;;;10.92;59.38;100429.08;1664300;85;34887;-74
2021/05/10 03:07:41;;;;;;;6.00;3.60;;;;;;;10.89;59.52;100432.03;1660911;85;25386;-73
2021/05/10 03:10:19;;;;;;;7.40;3.70;;;;;;;10.84;59.52;100440.85;1663696;85;25775;-74
2021/05/10 03:12:47;;;;;;;7.28;3.83;;;;;;;10.82;59.62;100444.93;1640836;85;26732;-74
2021/05/10 03:15:15;;;;;;;6.17;3.67;;;;;;;10.80;59.69;100448.22;1662917;85;26005;-74
2021/05/10 03:17:42;;;;;;;7.78;4.37;;;;;;;10.78;59.81;100443.64;1659633;85;25808;-74
2021/05/10 03:20:12;;;;;;;7.70;4.15;;;;;;;10.77;59.85;100447.22;1658256;85;25791;-74
2021/05/10 03:22:39;;;;;;;7.15;4.42;;;;;;;10.78;59.97;100455.41;1662088;85;25757;-74
2021/05/10 03:25:08;;;;;;;9.65;3.50;;;;;;;10.76;59.96;100456.55;1657557;85;25782;-74
2021/05/10 03:27:40;;;;;;;8.73;3.30;;;;;;;10.75;60.08;100458.81;1662347;85;25759;-74
2021/05/10 03:30:18;;;;;;;7.85;3.55;;;;;;;10.71;60.11;100464.06;1662653;85;25784;-75
2021/05/10 03:32:45;;;;;;;7.65;3.60;;;;;;;10.70;60.27;100465.86;1665321;85;25760;-75
2021/05/10 03:35:13;;;;;;;8.60;3.98;;;;;;;10.65;60.42;100465.03;1663332;85;25827;-75
2021/05/10 03:37:39;;;;;;;6.17;3.90;;;;;;;10.63;60.49;100465.67;1660485;85;26044;-75
2021/05/10 03:40:09;;;;;;;6.78;4.33;;;;;;;10.66;60.65;100468.45;1660231;85;26575;-75
2021/05/10 03:42:35;;;;;;;5.25;3.47;;;;;;;10.66;60.67;100472.38;1662667;85;25757;-75
2021/05/10 03:45:01;;;;;;;8.10;4.00;;;;;;;10.69;60.84;100478.58;1664555;85;32973;-74
2021/05/10 03:48:01;;;;;;;7.85;4.25;;;;;;;10.73;60.71;100479.91;1664631;85;26048;-74
2021/05/10 03:50:01;;;;;;;6.22;3.70;;;;;;;10.74;60.75;100475.00;1648132;85;25715;-74
2021/05/10 03:52:27;;;;;;;6.87;4.00;;;;;;;10.79;60.78;100473.20;1663050;85;28569;-74
2021/05/10 03:54:54;;;;;;;10.13;4.03;;;;;;;10.79;60.86;100478.44;1663612;85;35023;-73
2021/05/10 03:57:19;;;;;;;6.67;3.80;;;;;;;10.80;60.85;100478.75;1663144;85;26678;-74
2021/05/10 03:59:45;;;;;;;10.03;4.10;;;;;;;10.84;60.94;100489.23;1663776;85;25550;-74
2021/05/10 04:02:11;;;;;;;6.53;3.63;;;;;;;10.85;61.06;100483.01;1662702;85;31410;-74
2021/05/10 04:04:41;;;;;;;5.53;3.60;;;;;;;10.87;61.13;100481.05;1661448;85;27570;-74
2021/05/10 04:07:17;;;;;;;6.87;3.85;;;;;;;10.91;61.14;100481.53;1661546;85;25909;-74
2021/05/10 04:09:48;;;;;;;6.78;4.08;;;;;;;10.94;61.04;100485.97;1660687;85;25947;-74
2021/05/10 04:14:51;;;;;;;5.58;3.70;;;;;;;10.99;61.27;100480.22;1662513;85;25765;-73
2021/05/10 04:17:17;;;;;;;7.50;4.00;;;;;;;11.02;61.29;100485.12;1663440;85;25810;-73
2021/05/10 04:19:43;;;;;;;6.80;3.50;;;;;;;11.07;61.27;100484.95;1661438;85;34961;-73
2021/05/10 04:22:12;;;;;;;8.75;4.10;;;;;;;11.14;61.24;100489.55;1659087;85;32673;-73
2021/05/10 04:24:38;;;;;;;6.47;3.90;;;;;;;11.21;61.17;100483.48;1648710;85;25900;-73
2021/05/10 04:27:05;;;;;;;7.70;4.03;;;;;;;11.28;61.14;100480.52;1652610;85;30316;-73
2021/05/10 04:29:32;;;;;;;7.70;4.15;;;;;;;11.35;61.12;100480.68;1652885;85;25725;-73
2021/05/10 04:31:58;;;;;;;7.12;3.67;;;;;;;11.41;61.09;100485.73;1650315;85;25721;-73
2021/05/10 04:34:23;;;;;;;8.58;3.87;;;;;;;11.46;61.01;100484.75;1630102;86;32681;-73
2021/05/10 04:36:49;;;;;;;10.90;3.97;;;;;;;11.51;60.99;100488.95;1657810;85;25466;-73
2021/05/10 04:39:15;;;;;;;8.57;4.07;;;;;;;11.60;61.05;100483.23;1660028;85;30412;-73
2021/05/10 04:41:41;;;;;;;7.53;4.00;;;;;;;11.65;61.07;100479.59;1660997;85;28518;-74
2021/05/10 04:44:07;;;;;;;6.62;3.50;;;;;;;11.71;61.01;100480.25;1660865;85;34820;-73
2021/05/10 04:46:32;;;;;;;7.58;3.83;;;;;;;11.76;60.90;100482.67;1661511;85;32554;-73
2021/05/10 04:48:58;;;;;;;7.27;3.60;;;;;;;11.85;60.83;100481.34;1658465;85;25450;-73
2021/05/10 04:51:24;;;;;;;9.83;3.60;;;;;;;11.93;60.71;100485.27;1662877;85;32385;-73
2021/05/10 04:53:50;;;;;;;9.20;3.93;;;;;;;12.00;60.60;100484.88;1660927;85;29515;-74
2021/05/10 04:56:16;;;;;;;10.65;4.30;;;;;;;12.06;60.64;100480.76;1661972;85;25818;-74
2021/05/10 04:58:42;;;;;;;13.25;4.62;;;;;;;12.14;60.51;100482.02;1661330;85;33169;-74
2021/05/10 05:01:08;;;;;;;8.23;3.37;;;;;;;12.23;60.35;100479.70;1658721;84;25930;-75
2021/05/10 05:03:34;;;;;;;10.73;5.53;;;;;;;12.32;60.38;100482.58;1659812;85;28466;-75
2021/05/10 05:06:00;;;;;;;9.23;3.70;;;;;;;12.40;60.11;100481.22;1664171;84;28988;-74
2021/05/10 05:08:26;;;;;;;14.40;3.65;;;;;;;12.50;59.90;100484.94;1663934;85;34888;-74
2021/05/10 05:10:52;;;;;;;9.25;3.45;;;;;;;12.57;59.79;100477.17;1662346;85;32464;-74
2021/05/10 05:13:25;;;;;;;7.87;3.65;;;;;;;12.64;59.75;100481.55;1663793;85;26160;-74
2021/05/10 05:15:51;;;;;;;5.70;3.22;;;;;;;12.72;59.59;100475.94;1661269;84;25449;-74
2021/05/10 05:18:17;;;;;;;5.65;3.10;;;;;;;12.80;59.40;100474.05;1661750;84;25695;-74
2021/05/10 05:20:43;;;;;;;6.30;3.35;;;;;;;12.88;59.15;100474.49;1659023;85;34925;-73
2021/05/10 05:23:24;;;;;;;8.00;3.45;;;;;;;12.96;58.96;100472.27;1660524;85;25808;-74
2021/05/10 05:26:00;;;;;;;5.97;3.27;;;;;;;13.02;58.67;100473.70;1658717;85;26490;-74
2021/05/10 05:28:27;;;;;;;7.08;3.33;;;;;;;13.10;58.46;100470.19;1663695;85;25889;-73
2021/05/10 05:30:55;;;;;;;10.75;3.15;;;;;;;13.17;58.29;100477.65;1658131;85;25691;-73
2021/05/10 05:33:22;;;;;;;9.40;3.65;;;;;;;13.23;58.29;100475.64;1662422;85;25347;-73
2021/05/10 05:35:47;;;;;;;9.55;3.42;;;;;;;13.32;58.48;100471.15;1660459;85;25993;-73
2021/05/10 05:38:13;;;;;;;5.60;2.72;;;;;;;13.41;58.17;100475.81;1662341;85;25723;-74
2021/05/10 05:40:42;;;;;;;7.30;3.00;;;;;;;13.47;57.99;100476.39;1658897;85;33298;-75
2021/05/10 05:43:10;;;;;;;8.70;3.30;;;;;;;13.57;58.04;100483.52;1659750;85;25842;-74
2021/05/10 05:45:38;;;;;;;6.80;3.10;;;;;;;13.67;57.78;100482.75;1633772;86;25340;-74
2021/05/10 05:48:06;;;;;;;6.65;2.92;;;;;;;13.76;57.42;100483.45;1662307;85;25822;-74
2021/05/10 05:50:34;;;;;;;10.35;2.92;;;;;;;13.84;57.61;100475.98;1662641;85;26403;-74
2021/05/10 05:53:01;;;;;;;8.60;3.40;;;;;;;13.91;57.47;100475.07;1660442;85;25887;-73
2021/05/10 05:55:28;;;;;;;7.47;3.52;;;;;;;14.01;57.24;100472.64;1663389;85;25803;-73
2021/05/10 05:57:56;;;;;;;5.25;3.30;;;;;;;14.11;57.11;100477.11;1661944;85;26490;-74
2021/05/10 06:00:22;;;;;;;8.15;3.22;;;;;;;14.19;57.04;100473.05;1662533;85;25739;-74
2021/05/10 06:02:48;;;;;;;8.40;3.20;;;;;;;14.27;56.53;100469.47;1630190;86;26396;-74
2021/05/10 06:05:14;;;;;;;7.40;3.42;;;;;;;14.34;56.65;100469.86;1660538;85;33090;-73
2021/05/10 06:07:42;;;;;;;10.15;3.15;;;;;;;14.44;56.84;100465.11;1656453;85;25918;-74
2021/05/10 06:10:16;;;;;;;8.30;3.15;;;;;;;14.54;56.69;100469.27;1660045;85;25813;-74
2021/05/10 06:12:45;;;;;;;6.00;2.92;;;;;;;14.64;56.49;100465.83;1634367;86;25818;-74
2021/05/10 06:15:11;;;;;;;7.33;2.92;;;;;;;14.72;55.93;100465.70;1638022;86;25901;-74
2021/05/10 06:17:38;;;;;;;10.38;2.77;;;;;;;14.76;55.59;100466.95;1660214;85;26092;-75
2021/05/10 06:20:06;;;;;;;8.83;3.10;;;;;;;14.82;55.51;100468.02;1662505;85;25922;-75
2021/05/10 06:22:32;;;;;;;6.60;3.17;;;;;;;14.89;55.67;100468.86;1656829;85;25381;-74
2021/05/10 06:24:58;;;;;;;8.50;2.90;;;;;;;14.97;55.39;100471.36;1658646;85;25750;-74
2021/05/10 06:27:24;;;;;;;6.60;2.87;;;;;;;15.06;55.46;100473.37;1662075;85;25809;-75
2021/05/10 06:29:50;;;;;;;9.03;2.87;;;;;;;15.16;55.30;100473.02;1661736;85;25735;-75
2021/05/10 06:32:16;;;;;;;6.12;2.95;;;;;;;15.25;54.84;100480.59;1659117;84;30415;-73
2021/05/10 06:34:41;;;;;;;10.65;2.65;;;;;;;15.29;54.52;100469.97;1646047;85;35223;-74
2021/05/10 06:37:07;;;;;;;10.68;2.95;;;;;;;15.35;54.54;100468.38;1661442;85;32490;-74
2021/05/10 06:39:33;;;;;;;10.15;2.77;;;;;;;15.44;54.52;100469.87;1661253;85;26184;-75
2021/05/10 06:41:59;;;;;;;7.90;3.00;;;;;;;15.51;54.27;100471.20;1632067;86;33242;-75
2021/05/10 06:44:24;;;;;;;9.63;2.70;;;;;;;15.57;54.01;100471.73;1658075;85;31336;-75
2021/05/10 06:46:50;;;;;;;5.92;2.87;;;;;;;15.64;53.39;100466.01;1657440;84;35387;-73
2021/05/10 06:49:16;;;;;;;6.20;3.62;;;;;;;15.69;53.42;100462.31;1660239;85;33388;-74
2021/05/10 06:51:42;;;;;;;8.75;3.00;;;;;;;15.78;54.03;100463.47;1660341;84;26527;-74
2021/05/10 06:54:08;;;;;;;4.58;2.72;;;;;;;15.92;53.68;100466.45;1662481;85;34542;-73
2021/05/10 06:56:33;;;;;;;13.50;2.75;;;;;;;16.00;53.07;100463.64;1663129;85;31203;-74
2021/05/10 06:58:59;;;;;;;4.62;2.60;;;;;;;15.94;52.28;100440.20;1661351;85;34886;-74
2021/05/10 07:01:25;;;;;;;8.55;2.98;;;;;;;16.13;52.47;100465.00;1663043;85;32917;-73
2021/05/10 07:03:51;;;;;;;6.83;2.98;;;;;;;16.20;52.59;100461.05;1662731;85;25825;-71
2021/05/10 07:06:17;;;;;;;6.17;2.58;;;;;;;16.30;52.01;100455.41;1660735;85;33456;-71
2021/05/10 07:08:42;;;;;;;6.25;2.90;;;;;;;16.40;52.65;100454.52;1659862;84;31296;-74
2021/05/10 07:11:08;;;;;;;7.65;2.52;;;;;;;16.50;52.67;100462.83;1660860;85;35078;-73
2021/05/10 07:13:34;;;;;;;8.45;2.47;;;;;;;16.60;52.19;100465.09;1631778;86;32729;-71
2021/05/10 07:16:00;;;;;;;6.70;2.70;;;;;;;16.67;52.28;100463.77;1658685;85;26621;-75
2021/05/10 07:18:26;;;;;;;4.87;2.15;;;;;;;16.76;52.09;100463.37;1660646;85;33191;-75
2021/05/10 07:20:52;;;;;;;5.83;2.60;;;;;;;16.85;51.83;100460.84;1664346;85;31190;-71
2021/05/10 07:23:18;;;;;;;3.95;2.30;;;;;;;16.92;51.86;100452.14;1664298;85;35067;-71
2021/05/10 07:25:47;;;;;;;6.67;2.05;;;;;;;17.00;51.64;100444.81;1664215;85;25845;-72
2021/05/10 07:28:17;;;;;;;7.78;2.22;;;;;;;17.09;51.22;100448.85;1663888;85;26419;-72
2021/05/10 07:30:44;;;;;;;11.73;2.72;;;;;;;17.16;50.95;100440.94;1663290;85;25789;-70
2021/05/10 07:33:10;;;;;;;7.58;2.45;;;;;;;17.23;51.07;100441.71;1664336;85;25934;-71
2021/05/10 07:35:36;;;;;;;7.08;2.50;;;;;;;17.32;51.06;100438.33;1634818;86;25446;-74
2021/05/10 07:38:03;;;;;;;5.28;3.15;;;;;;;17.40;51.12;100435.46;1662557;85;25403;-73
2021/05/10 07:40:30;;;;;;;6.53;2.40;;;;;;;17.51;51.50;100436.66;1664032;85;25635;-74
2021/05/10 07:42:58;;;;;;;8.63;2.20;;;;;;;17.64;51.18;100441.89;1649716;85;25900;-71
2021/05/10 07:45:24;;;;;;;8.40;2.33;;;;;;;17.74;50.16;100439.63;1634413;86;25756;-71
2021/05/10 07:47:53;;;;;;;7.70;2.65;;;;;;;17.80;49.56;100441.97;1635759;86;25447;-73
2021/05/10 07:50:19;;;;;;;9.00;2.37;;;;;;;17.88;49.69;100428.50;1651116;85;25875;-72
2021/05/10 07:52:45;;;;;;;10.50;3.00;;;;;;;17.96;49.90;100434.87;1628331;85;25835;-73
2021/05/10 07:55:12;;;;;;;7.12;2.22;;;;;;;18.04;49.07;100439.10;1651387;85;33702;-73
2021/05/10 07:57:37;;;;;;;8.50;2.25;;;;;;;18.12;49.40;100434.89;1623191;86;25870;-71
2021/05/10 08:00:08;;;;;;;4.70;1.70;;;;;;;18.20;48.92;100427.22;1656325;85;35402;-73
2021/05/10 08:02:37;;;;;;;6.00;2.25;;;;;;;18.29;48.90;100433.05;1661502;85;25317;-73
2021/05/10 08:05:04;;;;;;;4.53;2.50;;;;;;;18.36;48.33;100433.31;1661726;85;25665;-73
2021/05/10 08:07:30;;;;;;;7.20;2.47;;;;;;;18.41;48.12;100428.67;1662263;85;25664;-73
2021/05/10 08:09:56;;;;;;;6.45;2.00;;;;;;;18.48;47.79;100430.77;1662967;85;31717;-73
2021/05/10 08:12:22;;;;;;;6.50;2.35;;;;;;;18.52;47.69;100424.53;1664202;85;25885;-73
2021/05/10 08:14:48;;;;;;;6.90;2.50;;;;;;;18.58;47.10;100431.62;1663312;85;32885;-73
2021/05/10 08:17:13;;;;;;;13.10;2.55;;;;;;;18.64;47.42;100424.95;1662986;85;26211;-72
2021/05/10 08:19:39;;;;;;;6.17;1.70;;;;;;;18.73;47.46;100429.97;1660586;85;33277;-72
2021/05/10 08:22:06;;;;;;;3.90;2.10;;;;;;;18.82;47.38;100426.03;1666034;85;31413;-72
2021/05/10 08:24:32;;;;;;;6.72;2.22;;;;;;;18.92;46.54;100424.23;1662489;85;25769;-72
2021/05/10 08:26:58;;;;;;;4.60;1.92;;;;;;;18.96;46.77;100434.67;1663586;85;32596;-71
2021/05/10 08:29:25;;;;;;;8.33;1.90;;;;;;;19.02;45.93;100429.84;1658634;85;25826;-74
2021/05/10 08:31:51;;;;;;;5.17;2.05;;;;;;;19.07;46.36;100425.51;1660322;85;25855;-74
2021/05/10 08:34:18;;;;;;;4.03;2.00;;;;;;;19.18;46.34;100423.14;1662946;84;25745;-75
2021/05/10 08:36:45;;;;;;;3.08;1.70;;;;;;;19.28;46.52;100415.49;1666065;85;25446;-75
2021/05/10 08:39:11;;;;;;;4.78;1.85;;;;;;;19.38;46.48;100413.14;1664945;85;25878;-74
2021/05/10 08:41:40;;;;;;;5.35;2.20;;;;;;;19.48;46.34;100409.98;1666024;85;25863;-74
2021/05/10 08:44:09;;;;;;;3.40;1.57;;;;;;;19.57;46.19;100415.78;1670485;84;26073;-74
2021/05/10 08:46:37;;;;;;;5.30;1.90;;;;;;;19.66;46.59;100415.27;1664358;85;25869;-73
2021/05/10 08:49:04;;;;;;;5.80;1.85;;;;;;;19.80;46.57;100416.43;1632735;86;25857;-73
2021/05/10 08:51:32;;;;;;;7.42;1.87;;;;;;;19.91;46.30;100407.70;1661713;85;25705;-73
2021/05/10 08:53:59;;;;;;;7.17;2.45;;;;;;;19.97;45.63;100402.84;1662679;85;26424;-72
2021/05/10 08:56:25;;;;;;;5.67;1.87;;;;;;;20.07;45.16;100401.76;1664039;85;26002;-73
2021/05/10 08:58:51;;;;;;;5.33;1.98;;;;;;;20.14;44.74;100403.00;1662813;85;25389;-73
2021/05/10 09:01:21;;;;;;;4.42;1.72;;;;;;;20.17;45.00;100403.35;1659467;85;34981;-73
2021/05/10 09:03:50;;;;;;;5.22;1.67;;;;;;;20.25;44.95;100401.42;1660570;85;25860;-73
2021/05/10 09:06:29;;;;;;;3.50;1.95;;;;;;;20.33;45.09;100404.55;1658927;85;25628;-73
2021/05/10 09:09:08;;;;;;;4.10;1.90;;;;;;;20.43;45.14;100403.97;1651070;85;25799;-72
2021/05/10 09:11:34;;;;;;;4.50;1.72;;;;;;;20.53;45.24;100402.91;1651159;85;25352;-73
2021/05/10 09:13:59;;;;;;;5.20;1.90;;;;;;;20.60;44.59;100394.33;1632969;86;26513;-73
2021/05/10 09:16:26;;;;;;;4.95;1.82;;;;;;;20.71;44.59;100389.27;1663969;85;28750;-74
2021/05/10 09:18:58;;;;;;;6.10;1.92;;;;;;;20.78;44.02;100391.27;1660064;85;25798;-74
2021/05/10 09:21:28;;;;;;;7.53;1.82;;;;;;;20.77;43.51;100393.64;1661842;85;25726;-72
2021/05/10 09:23:56;;;;;;;;;;;;;;;20.81;43.97;100394.78;1664598;85;25860;-73
2021/05/10 09:26:35;;;;;;;9.60;1.67;;;;;;;20.91;43.73;100392.36;1660505;85;25673;-73
2021/05/10 09:29:02;;;;;;;6.62;1.77;;;;;;;21.01;43.38;100395.24;1662111;85;25814;-71
2021/05/10 09:31:30;;;;;;;3.55;1.65;;;;;;;21.07;43.18;100394.83;1663419;85;25612;-71
2021/05/10 09:33:57;;;;;;;5.12;2.30;;;;;;;21.10;42.95;100394.36;1664235;85;25853;-73
2021/05/10 09:36:40;;;;;;;7.35;1.87;;;;;;;21.18;43.21;100391.87;1661477;85;25759;-72
2021/05/10 09:39:11;;;;;;;5.28;2.40;;;;;;;21.23;43.01;100391.97;1662955;85;25879;-71
2021/05/10 09:41:42;;;;;;;4.70;1.95;;;;;;;21.33;42.84;100386.84;1659603;85;25347;-74
2021/05/10 09:44:08;;;;;;;4.58;1.50;;;;;;;21.37;42.94;100390.69;1660679;85;26526;-74
2021/05/10 09:46:43;;;;;;;12.75;1.70;;;;;;;21.42;42.45;100382.02;1665727;85;33592;-75
2021/05/10 09:49:10;;;;;;;6.20;1.65;;;;;;;21.47;41.78;100374.11;1659635;85;25825;-73
2021/05/10 09:51:37;;;;;;;5.65;1.30;;;;;;;21.47;41.88;100370.95;1663060;85;25741;-73
2021/05/10 09:54:14;;;;;;;7.90;2.00;;;;;;;21.55;42.32;100369.75;1650991;85;25851;-73
2021/05/10 09:56:41;;;;;;;5.97;2.00;;;;;;;21.66;42.46;100374.23;1661852;85;26446;-72
2021/05/10 09:59:17;;;;;;;3.65;1.55;;;;;;;21.75;41.91;100376.52;1660128;85;25967;-74
2021/05/10 10:01:48;;;;;;;2.65;1.62;;;;;;;21.86;41.78;100371.12;1660547;85;25795;-75
2021/05/10 10:04:17;;;;;;;2.62;1.50;;;;;;;21.93;41.67;100371.80;1661302;85;25792;-72
2021/05/10 10:06:46;;;;;;;4.95;1.75;;;;;;;22.03;41.02;100369.81;1660786;85;26626;-73
2021/05/10 10:09:12;;;;;;;3.60;1.72;;;;;;;22.08;40.95;100364.58;1662394;85;25834;-73
2021/05/10 10:11:38;;;;;;;7.03;1.92;;;;;;;22.10;40.82;100369.67;1662398;85;25668;-73
2021/05/10 10:14:05;;;;;;;6.72;1.52;;;;;;;22.14;40.69;100370.80;1662535;85;31645;-72
2021/05/10 10:16:37;;;;;;;8.20;1.67;;;;;;;22.13;40.64;100362.00;1662538;85;25765;-74
2021/05/10 10:19:05;;;;;;;4.15;1.30;;;;;;;22.18;40.20;100366.64;1623555;86;25878;-71
2021/05/10 10:21:32;;;;;;;7.78;1.82;;;;;;;22.19;40.01;100364.25;1659575;85;26769;-74
2021/05/10 10:24:08;;;;;;;8.03;1.50;;;;;;;22.27;39.95;100369.17;1659052;85;25763;-75
2021/05/10 10:26:35;;;;;;;8.80;1.85;;;;;;;22.28;40.10;100365.45;1662108;85;25823;-72
2021/05/10 10:29:10;;;;;;;4.22;1.30;;;;;;;22.43;40.23;100359.58;1662031;85;25748;-72
2021/05/10 10:31:40;;;;;;;5.10;1.70;;;;;;;22.53;39.82;100362.37;1662807;85;25819;-72
2021/05/10 10:34:34;;;;;;;5.55;1.40;;;;;;;22.59;39.59;100364.08;1664770;85;25701;-71
2021/05/10 10:37:03;;;;;;;3.62;1.55;;;;;;;22.60;38.72;100362.22;1663896;85;25732;-72
2021/05/10 10:39:32;;;;;;;8.23;1.70;;;;;;;22.55;38.94;100360.80;1663181;85;25816;-70
2021/05/10 10:42:06;;;;;;;3.65;1.70;;;;;;;22.67;39.58;100358.03;1665330;85;26033;-71
2021/05/10 10:44:39;;;;;;;5.37;1.25;;;;;;;22.76;38.88;100366.70;1658461;85;25360;-72
2021/05/10 10:47:10;;;;;;;6.53;1.60;;;;;;;22.83;38.97;100367.85;1660806;85;26513;-73
2021/05/10 10:49:41;;;;;;;6.10;1.92;;;;;;;22.93;38.71;100367.19;1663226;85;25709;-73
2021/05/10 10:52:24;;;;;;;5.10;1.35;;;;;;;22.97;39.10;100361.16;1659753;85;27107;-74
2021/05/10 10:55:25;;;;;;;7.72;1.80;;;;;;;23.04;38.26;100369.77;1663817;85;25423;-74
2021/05/10 10:58:18;;;;;;;5.62;2.12;;;;;;;23.05;38.36;100367.91;1651284;85;26023;-75
2021/05/10 11:01:07;;;;;;;6.15;1.47;;;;;;;23.11;37.76;100374.10;1645497;85;26818;-71
2021/05/10 11:03:35;;;;;;;5.90;2.10;;;;;;;23.11;37.62;100368.27;1649304;85;25901;-73
2021/05/10 11:06:01;;;;;;;9.28;2.17;;;;;;;23.18;38.07;100362.20;1626247;85;25851;-72
2021/05/10 11:08:49;;;;;;;7.22;1.80;;;;;;;23.25;37.75;100367.37;1650320;85;25885;-73
2021/05/10 11:11:39;;;;;;;4.75;1.52;;;;;;;23.29;37.91;100362.33;1649178;85;25386;-71
2021/05/10 11:14:05;;;;;;;;;;;;;;;23.28;37.37;100356.73;1648572;85;25779;-73
2021/05/10 11:16:47;;;;;;;6.55;1.98;;;;;;;23.37;37.97;100349.89;1645188;85;25810;-73
2021/05/10 11:19:38;;;;;;;6.08;1.70;;;;;;;23.43;37.80;100343.01;1649391;85;25553;-73
2021/05/10 11:22:35;;;;;;;6.33;2.10;;;;;;;23.48;37.42;100343.60;1647545;85;25959;-73
2021/05/10 11:25:36;;;;;;;4.75;1.92;;;;;;;23.54;37.10;100347.92;1643299;85;26432;-72
2021/05/10 11:28:28;;;;;;;4.33;1.37;;;;;;;23.59;37.72;100346.64;1647608;85;25856;-73
2021/05/10 11:31:10;;;;;;;11.43;1.40;;;;;;;23.73;36.74;100342.27;1641986;85;25931;-71
2021/05/10 11:33:57;;;;;;;3.10;1.30;;;;;;;23.69;36.80;100336.61;1659935;85;25858;-71
2021/05/10 11:36:29;;;;;;;7.33;1.50;;;;;;;23.79;36.75;100334.08;1663769;85;25952;-73